YSWG/WGA METAR and TAF weather

Enter ICAO airport designator
Station Type Date Time Source
YSWG METAR 2022/05/22 15:16 UTC NOAA

YSWG 221516Z AUTO 00000KT 9999 // NCD 09/08 Q1028


Station Type Date Time Source
YSWG Decoded METAR 2022/05/22 15:16 UTC NOAA

Wagga Airport, Australia (YSWG) 35-09S 147-27E 213M
May 22, 2022 - 11:16 AM EDT / 2022.05.22 1516 UTC
Wind: Calm:0
Visibility: greater than 7 mile(s):0
Temperature: 48 F (9 C)
Dew Point: 46 F (8 C)
Relative Humidity: 93%
Pressure (altimeter): 30.36 in. Hg (1028 hPa)
ob: YSWG 221516Z AUTO 00000KT 9999 // NCD 09/08 Q1028
cycle: 15

Station Type Date Time Source
YSWG TAF 2018/05/25 18:03 UTC NOAA

TAF YSWG 251649Z 2518/2608 07008KT CAVOK

Example: see airport list